createdAt,value
2023-02-02T00:01:53.077Z,4.05
2023-02-02T00:04:25.390Z,4.04
2023-02-02T00:06:56.574Z,4.05
2023-02-02T00:09:29.698Z,4.07
2023-02-02T00:12:01.762Z,4.06
2023-02-02T00:14:32.475Z,4.06
2023-02-02T00:17:03.200Z,4.08
2023-02-02T00:19:33.933Z,4.10
2023-02-02T00:22:04.720Z,4.11
2023-02-02T00:24:35.430Z,4.10
2023-02-02T00:27:06.283Z,4.10
2023-02-02T00:29:37.161Z,4.13
2023-02-02T00:32:08.146Z,4.13
2023-02-02T00:34:38.875Z,4.11
2023-02-02T00:37:09.807Z,4.09
2023-02-02T00:39:40.560Z,4.06
2023-02-02T00:42:12.350Z,4.04
2023-02-02T00:44:43.024Z,4.05
2023-02-02T00:47:13.909Z,4.05
2023-02-02T00:49:44.627Z,4.06
2023-02-02T00:52:15.439Z,4.07
2023-02-02T00:54:46.304Z,4.08
2023-02-02T00:57:17.529Z,4.08
2023-02-02T00:59:48.349Z,4.08
2023-02-02T01:02:19.091Z,4.03
2023-02-02T01:04:50.412Z,4.03
2023-02-02T01:07:21.432Z,4.02
2023-02-02T01:09:52.120Z,4.04
2023-02-02T01:12:23.630Z,4.06
2023-02-02T01:14:55.306Z,4.06
2023-02-02T01:17:26.112Z,4.05
2023-02-02T01:19:56.798Z,4.03
2023-02-02T01:22:27.984Z,4.01
2023-02-02T01:24:58.749Z,4.00
2023-02-02T01:27:29.523Z,3.99
2023-02-02T01:30:00.314Z,3.97
2023-02-02T01:32:31.074Z,3.94
2023-02-02T01:35:01.748Z,3.94
2023-02-02T01:37:32.501Z,3.93
2023-02-02T01:40:03.603Z,3.93
2023-02-02T01:42:32.779Z,3.93
2023-02-02T01:45:20.984Z,3.92
2023-02-02T01:47:54.821Z,3.94
2023-02-02T01:50:28.409Z,3.95
2023-02-02T01:53:01.950Z,3.94
2023-02-02T01:55:36.036Z,3.94
2023-02-02T01:58:09.987Z,3.92
2023-02-02T02:00:42.651Z,3.90
2023-02-02T02:03:16.022Z,3.90
2023-02-02T02:05:50.092Z,3.87
2023-02-02T02:08:23.400Z,3.85
2023-02-02T02:10:54.567Z,3.81
2023-02-02T02:13:25.234Z,3.81
2023-02-02T02:16:02.531Z,3.77
2023-02-02T02:18:44.462Z,3.73
2023-02-02T02:21:54.159Z,3.72
2023-02-02T02:25:00.725Z,3.71
2023-02-02T02:28:00.635Z,3.67
2023-02-02T02:30:55.772Z,3.66
2023-02-02T02:33:35.244Z,3.65
2023-02-02T02:36:15.899Z,3.67
2023-02-02T02:38:51.428Z,3.69
2023-02-02T02:41:23.984Z,3.68
2023-02-02T02:43:59.254Z,3.69
2023-02-02T02:46:30.628Z,3.68
2023-02-02T02:49:02.309Z,3.68
2023-02-02T02:51:46.033Z,3.67
2023-02-02T02:54:18.845Z,3.67
2023-02-02T02:56:58.090Z,3.66
2023-02-02T02:59:37.790Z,3.68
2023-02-02T03:02:24.973Z,3.69
2023-02-02T03:05:07.659Z,3.69
2023-02-02T03:07:43.347Z,3.70
2023-02-02T03:10:17.265Z,3.71
2023-02-02T03:12:50.140Z,3.72
2023-02-02T03:15:21.062Z,3.75
2023-02-02T03:17:53.082Z,3.78
2023-02-02T03:20:23.748Z,3.80
2023-02-02T03:22:54.402Z,3.81
2023-02-02T03:25:25.385Z,3.83
2023-02-02T03:27:56.300Z,3.84
2023-02-02T03:30:27.518Z,3.88
2023-02-02T03:32:58.375Z,3.89
2023-02-02T03:35:28.969Z,3.89
2023-02-02T03:37:59.685Z,3.92
2023-02-02T03:40:30.833Z,3.92
2023-02-02T03:42:59.943Z,3.94
2023-02-02T03:45:30.740Z,3.95
2023-02-02T03:48:03.053Z,3.98
2023-02-02T03:50:34.466Z,4.00
2023-02-02T03:53:05.152Z,4.01
2023-02-02T03:55:35.770Z,4.05
2023-02-02T03:58:06.407Z,4.06
2023-02-02T04:00:37.057Z,4.09
2023-02-02T04:03:07.831Z,4.10
2023-02-02T04:05:38.521Z,4.11
2023-02-02T04:08:09.264Z,4.12
2023-02-02T04:10:39.914Z,4.10
2023-02-02T04:13:10.585Z,4.10
2023-02-02T04:15:41.845Z,4.08
2023-02-02T04:18:12.633Z,4.06
2023-02-02T04:20:43.389Z,4.03
2023-02-02T04:23:14.159Z,4.02
2023-02-02T04:25:51.933Z,4.01
2023-02-02T04:28:23.326Z,4.00
2023-02-02T04:30:55.177Z,3.99
2023-02-02T04:33:27.384Z,3.98
2023-02-02T04:35:58.015Z,3.95
2023-02-02T04:38:28.688Z,3.94
2023-02-02T04:40:59.344Z,3.91
2023-02-02T04:43:30.004Z,3.91
2023-02-02T04:46:00.981Z,3.92
2023-02-02T04:48:32.216Z,3.92
2023-02-02T04:51:04.842Z,3.93
2023-02-02T04:53:35.649Z,3.93
2023-02-02T04:56:12.804Z,3.94
2023-02-02T04:58:44.018Z,3.94
2023-02-02T05:01:17.724Z,3.92
2023-02-02T05:03:49.261Z,3.93
2023-02-02T05:06:19.988Z,3.92
2023-02-02T05:08:50.692Z,3.94
2023-02-02T05:11:22.614Z,3.94
2023-02-02T05:13:54.635Z,3.95
2023-02-02T05:16:28.505Z,3.98
2023-02-02T05:18:59.657Z,3.99
2023-02-02T05:21:29.098Z,4.00
2023-02-02T05:23:59.798Z,3.99
2023-02-02T05:26:30.506Z,3.98
2023-02-02T05:29:01.246Z,4.00
2023-02-02T05:31:32.042Z,4.00
2023-02-02T05:34:03.591Z,4.00
2023-02-02T05:36:34.243Z,4.01
2023-02-02T05:39:05.036Z,3.99
2023-02-02T05:41:35.642Z,4.00
2023-02-02T05:44:07.002Z,3.98
2023-02-02T05:46:37.636Z,3.99
2023-02-02T05:49:11.630Z,3.99
2023-02-02T05:51:46.371Z,3.99
2023-02-02T05:54:17.148Z,3.99
2023-02-02T05:56:48.448Z,4.01
2023-02-02T05:59:19.418Z,3.97
2023-02-02T06:01:50.570Z,3.95
2023-02-02T06:04:29.586Z,3.96
2023-02-02T06:07:11.366Z,3.97
2023-02-02T06:09:42.279Z,3.98
2023-02-02T06:12:13.195Z,3.98
2023-02-02T06:14:44.044Z,3.97
2023-02-02T06:17:14.791Z,3.98
2023-02-02T06:19:45.541Z,3.97
2023-02-02T06:22:16.255Z,3.96
2023-02-02T06:24:47.189Z,3.96
2023-02-02T06:27:17.861Z,3.96
2023-02-02T06:29:48.574Z,3.96
2023-02-02T06:32:19.265Z,3.96
2023-02-02T06:34:50.095Z,3.97
2023-02-02T06:37:20.737Z,3.96
2023-02-02T06:39:51.419Z,3.94
2023-02-02T06:42:22.203Z,3.95
2023-02-02T06:44:52.996Z,3.97
2023-02-02T06:47:25.378Z,3.98
2023-02-02T06:49:57.219Z,3.96
2023-02-02T06:52:27.880Z,3.96
2023-02-02T06:54:58.759Z,3.93
2023-02-02T06:57:29.455Z,3.93
2023-02-02T07:00:00.218Z,3.94
2023-02-02T07:02:30.883Z,3.93
2023-02-02T07:05:01.748Z,3.94
2023-02-02T07:07:35.178Z,3.93
2023-02-02T07:10:06.501Z,3.88
2023-02-02T07:12:37.343Z,3.90
2023-02-02T07:15:11.423Z,3.89
2023-02-02T07:17:42.064Z,3.90
2023-02-02T07:20:16.732Z,3.89
2023-02-02T07:22:47.393Z,3.87
2023-02-02T07:25:18.110Z,3.90
2023-02-02T07:27:52.203Z,3.89
2023-02-02T07:30:23.073Z,3.90
2023-02-02T07:32:53.763Z,3.88
2023-02-02T07:35:25.180Z,3.85
2023-02-02T07:37:56.376Z,3.85
2023-02-02T07:40:27.040Z,3.84
2023-02-02T07:42:58.525Z,3.83
2023-02-02T07:45:29.433Z,3.83
2023-02-02T07:48:00.656Z,3.82
2023-02-02T07:50:32.081Z,3.83
2023-02-02T07:53:02.739Z,3.85
2023-02-02T07:55:33.430Z,3.83
2023-02-02T07:58:04.140Z,3.84
2023-02-02T08:00:34.964Z,3.87
2023-02-02T08:03:05.583Z,3.91
2023-02-02T08:05:36.341Z,3.98
2023-02-02T08:08:07.085Z,4.02
2023-02-02T08:10:37.762Z,4.10
2023-02-02T08:13:08.402Z,4.14
2023-02-02T08:15:39.130Z,4.14
2023-02-02T08:18:09.839Z,4.13
2023-02-02T08:20:41.064Z,4.16
2023-02-02T08:23:10.150Z,4.20
2023-02-02T08:25:41.040Z,4.23
2023-02-02T08:28:14.716Z,4.21
2023-02-02T08:30:45.828Z,4.27
2023-02-02T08:33:15.027Z,4.28
2023-02-02T08:35:46.061Z,4.30
2023-02-02T08:38:16.705Z,4.34
2023-02-02T08:40:47.462Z,4.38
2023-02-02T08:43:18.173Z,4.45
2023-02-02T08:46:02.462Z,4.50
2023-02-02T08:48:36.111Z,4.56
2023-02-02T08:51:08.578Z,4.58
2023-02-02T08:53:40.954Z,4.56
2023-02-02T08:56:14.387Z,4.58
2023-02-02T08:58:48.370Z,4.64
2023-02-02T09:01:20.910Z,4.64
2023-02-02T09:03:55.610Z,4.65
2023-02-02T09:06:31.916Z,4.68
2023-02-02T09:09:04.386Z,4.66
2023-02-02T09:11:35.577Z,4.64
2023-02-02T09:14:07.044Z,4.62
2023-02-02T09:16:38.115Z,4.61
2023-02-02T09:19:10.267Z,4.61
2023-02-02T09:21:41.063Z,4.62
2023-02-02T09:24:14.139Z,4.66
2023-02-02T09:26:47.293Z,4.78
2023-02-02T09:29:18.822Z,4.89
2023-02-02T09:31:49.683Z,4.94
2023-02-02T09:34:20.296Z,4.91
2023-02-02T09:36:51.081Z,5.09
2023-02-02T09:39:22.647Z,5.25
2023-02-02T09:42:16.510Z,5.31
2023-02-02T09:44:59.189Z,5.24
2023-02-02T09:47:53.404Z,5.19
2023-02-02T09:50:47.563Z,5.16
2023-02-02T09:53:26.477Z,5.18
2023-02-02T09:56:00.402Z,5.14
2023-02-02T09:58:34.555Z,5.12
2023-02-02T10:01:09.906Z,5.12
2023-02-02T10:03:50.274Z,5.13
2023-02-02T10:06:33.234Z,5.16
2023-02-02T10:09:12.993Z,5.11
2023-02-02T10:11:49.285Z,5.08
2023-02-02T10:14:27.388Z,5.02
2023-02-02T10:17:06.313Z,4.99
2023-02-02T10:19:39.261Z,5.02
2023-02-02T10:22:16.025Z,5.03
2023-02-02T10:24:47.284Z,5.02
2023-02-02T10:27:25.580Z,5.05
2023-02-02T10:30:31.386Z,5.09
2023-02-02T10:33:07.318Z,5.04
2023-02-02T10:35:45.135Z,4.99
2023-02-02T10:38:25.848Z,4.95
2023-02-02T10:41:06.877Z,4.96
2023-02-02T10:43:58.920Z,4.93
2023-02-02T10:46:34.895Z,4.86
2023-02-02T10:49:19.267Z,4.81
2023-02-02T10:51:55.986Z,4.76
2023-02-02T10:54:55.788Z,4.80
2023-02-02T10:57:42.921Z,4.78
2023-02-02T11:00:22.928Z,4.76
2023-02-02T11:03:08.615Z,4.79
2023-02-02T11:05:39.799Z,4.87
2023-02-02T11:08:21.465Z,5.00
2023-02-02T11:10:55.201Z,5.17
2023-02-02T11:13:33.667Z,5.29
2023-02-02T11:16:32.617Z,5.37
2023-02-02T11:19:28.073Z,5.31
2023-02-02T11:22:00.925Z,5.20
2023-02-02T11:24:34.931Z,5.13
2023-02-02T11:27:13.774Z,5.03
2023-02-02T11:29:46.540Z,4.92
2023-02-02T11:32:28.224Z,4.84
2023-02-02T11:35:18.596Z,4.70
2023-02-02T11:38:08.191Z,4.53
2023-02-02T11:40:42.093Z,4.44
2023-02-02T11:43:20.318Z,4.45
2023-02-02T11:45:57.080Z,4.50
2023-02-02T11:48:31.342Z,4.71
2023-02-02T11:51:03.577Z,4.92
2023-02-02T11:53:37.778Z,5.06
2023-02-02T11:56:18.539Z,4.95
2023-02-02T11:58:50.045Z,4.88
2023-02-02T12:01:26.918Z,4.83
2023-02-02T12:03:59.167Z,4.83
2023-02-02T12:06:36.712Z,4.84
2023-02-02T12:09:17.128Z,5.03
2023-02-02T12:11:59.150Z,5.17
2023-02-02T12:14:41.851Z,5.41
2023-02-02T12:17:34.712Z,5.61
2023-02-02T12:20:16.347Z,5.84
2023-02-02T12:22:51.452Z,5.96
2023-02-02T12:25:55.115Z,5.88
2023-02-02T12:28:42.140Z,6.03
2023-02-02T12:31:20.029Z,6.18
2023-02-02T12:33:57.064Z,6.06
2023-02-02T12:36:49.109Z,5.97
2023-02-02T12:39:37.993Z,5.80
2023-02-02T12:42:28.527Z,5.67
2023-02-02T12:45:23.093Z,5.41
2023-02-02T12:48:08.884Z,5.24
2023-02-02T12:50:51.274Z,4.92
2023-02-02T12:53:37.327Z,4.57
2023-02-02T12:56:28.086Z,4.30
2023-02-02T12:59:11.458Z,4.02
2023-02-02T13:02:00.349Z,3.98
2023-02-02T13:04:46.752Z,3.97
2023-02-02T13:07:31.009Z,3.95
2023-02-02T13:10:12.555Z,3.95
2023-02-02T13:12:48.011Z,4.02
2023-02-02T13:15:23.882Z,4.07
2023-02-02T13:17:57.401Z,4.10
2023-02-02T13:20:37.064Z,4.14
2023-02-02T13:23:13.672Z,4.18
2023-02-02T13:25:49.208Z,4.19
2023-02-02T13:28:37.137Z,4.12
2023-02-02T13:31:16.729Z,4.10
2023-02-02T13:33:54.205Z,4.16
2023-02-02T13:36:29.739Z,4.25
2023-02-02T13:39:03.751Z,4.29
2023-02-02T13:41:35.832Z,4.27
2023-02-02T13:44:13.336Z,4.29
2023-02-02T13:46:49.617Z,4.26
2023-02-02T13:49:25.173Z,4.23
2023-02-02T13:52:04.692Z,4.19
2023-02-02T13:55:00.179Z,4.14
2023-02-02T13:58:15.787Z,4.07
2023-02-02T14:00:50.822Z,4.06
2023-02-02T14:03:31.020Z,4.01
2023-02-02T14:06:10.117Z,3.97
2023-02-02T14:08:48.226Z,3.89
2023-02-02T14:11:24.119Z,3.88
2023-02-02T14:13:57.664Z,3.83
2023-02-02T14:16:46.773Z,3.80
2023-02-02T14:19:57.011Z,3.76
2023-02-02T14:23:30.376Z,3.76
2023-02-02T14:26:06.728Z,3.77
2023-02-02T14:28:50.925Z,3.75
2023-02-02T14:31:41.313Z,3.70
2023-02-02T14:34:35.615Z,3.67
2023-02-02T14:37:34.817Z,3.68
2023-02-02T14:40:34.518Z,3.65
2023-02-02T14:43:19.995Z,3.55
2023-02-02T14:46:42.203Z,3.53
2023-02-02T14:49:14.752Z,3.51
2023-02-02T14:51:52.329Z,3.49
2023-02-02T14:54:30.726Z,3.52
2023-02-02T14:57:06.275Z,3.57
2023-02-02T14:59:39.855Z,3.59
2023-02-02T15:02:20.356Z,3.57
2023-02-02T15:05:15.751Z,3.55
2023-02-02T15:08:06.752Z,3.52
2023-02-02T15:11:08.519Z,3.44
2023-02-02T15:13:39.829Z,3.41
2023-02-02T15:16:19.736Z,3.43
2023-02-02T15:18:59.663Z,3.45
2023-02-02T15:21:32.479Z,3.45
2023-02-02T15:24:04.895Z,3.41
2023-02-02T15:26:41.665Z,3.38
2023-02-02T15:29:17.561Z,3.35
2023-02-02T15:31:53.380Z,3.30
2023-02-02T15:34:27.191Z,3.27
2023-02-02T15:37:02.496Z,3.19
2023-02-02T15:39:46.196Z,3.17
2023-02-02T15:42:22.371Z,3.12
2023-02-02T15:44:53.048Z,3.09
2023-02-02T15:47:28.969Z,3.06
2023-02-02T15:49:59.841Z,2.99
2023-02-02T15:52:45.401Z,2.93
2023-02-02T15:55:25.446Z,2.90
2023-02-02T15:57:58.258Z,2.89
2023-02-02T16:00:32.268Z,2.86
2023-02-02T16:03:06.616Z,2.85
2023-02-02T16:05:47.239Z,2.87
2023-02-02T16:08:21.398Z,2.88
2023-02-02T16:11:01.611Z,2.88
2023-02-02T16:13:33.189Z,2.87
2023-02-02T16:16:06.406Z,2.84
2023-02-02T16:18:37.118Z,2.82
2023-02-02T16:21:25.064Z,2.77
2023-02-02T16:23:57.292Z,2.69
2023-02-02T16:26:31.476Z,2.62
2023-02-02T16:29:02.605Z,2.54
2023-02-02T16:31:34.965Z,2.48
2023-02-02T16:34:05.698Z,2.41
2023-02-02T16:36:36.629Z,2.40
2023-02-02T16:39:23.061Z,2.35
2023-02-02T16:41:54.032Z,2.31
2023-02-02T16:44:37.599Z,2.27
2023-02-02T16:47:33.268Z,2.26
2023-02-02T16:50:26.490Z,2.29
2023-02-02T16:53:01.640Z,2.34
2023-02-02T16:55:49.376Z,2.37
2023-02-02T16:58:23.518Z,2.41
2023-02-02T17:01:14.140Z,2.43
2023-02-02T17:03:53.630Z,2.39
2023-02-02T17:06:50.136Z,2.33
2023-02-02T17:09:35.550Z,2.27
2023-02-02T17:12:33.814Z,2.21
2023-02-02T17:15:27.468Z,2.09
2023-02-02T17:17:59.592Z,2.02
2023-02-02T17:20:33.343Z,1.95
2023-02-02T17:23:06.318Z,1.88
2023-02-02T17:26:23.289Z,1.81
2023-02-02T17:29:04.769Z,1.72
2023-02-02T17:31:38.265Z,1.67
2023-02-02T17:34:13.418Z,1.66
2023-02-02T17:36:44.383Z,1.68
2023-02-02T17:39:15.121Z,1.66
2023-02-02T17:41:48.104Z,1.66
2023-02-02T17:44:18.740Z,1.67
2023-02-02T17:46:50.135Z,1.68
2023-02-02T17:49:20.782Z,1.69
2023-02-02T17:51:51.525Z,1.73
2023-02-02T17:54:22.518Z,1.75
2023-02-02T17:56:53.293Z,1.77
2023-02-02T17:59:24.023Z,1.74
2023-02-02T18:01:55.434Z,1.71
2023-02-02T18:04:28.977Z,1.70
2023-02-02T18:06:59.637Z,1.64
2023-02-02T18:09:32.741Z,1.57
2023-02-02T18:12:04.717Z,1.55
2023-02-02T18:14:36.949Z,1.52
2023-02-02T18:17:10.414Z,1.50
2023-02-02T18:19:50.964Z,1.45
2023-02-02T18:22:21.787Z,1.41
2023-02-02T18:24:52.445Z,1.39
2023-02-02T18:27:23.223Z,1.38
2023-02-02T18:29:53.869Z,1.37
2023-02-02T18:32:55.942Z,1.36
2023-02-02T18:35:16.183Z,1.37
2023-02-02T18:37:46.965Z,1.38
2023-02-02T18:40:18.298Z,1.37
2023-02-02T18:42:49.011Z,1.36
2023-02-02T18:45:19.719Z,1.34
2023-02-02T18:47:50.419Z,1.31
2023-02-02T18:50:23.610Z,1.27
2023-02-02T18:52:54.543Z,1.24
2023-02-02T18:55:25.579Z,1.20
2023-02-02T18:57:59.379Z,1.16
2023-02-02T19:00:30.342Z,1.12
2023-02-02T19:03:01.296Z,1.08
2023-02-02T19:05:32.450Z,1.05
2023-02-02T19:08:03.214Z,1.02
2023-02-02T19:10:34.020Z,0.98
2023-02-02T19:13:17.145Z,0.95
2023-02-02T19:15:51.961Z,0.93
2023-02-02T19:18:33.963Z,0.93
2023-02-02T19:21:10.959Z,0.88
2023-02-02T19:23:43.839Z,0.89
2023-02-02T19:26:22.058Z,0.90
2023-02-02T19:29:06.666Z,0.90
2023-02-02T19:31:37.342Z,0.91
2023-02-02T19:34:13.106Z,0.92
2023-02-02T19:36:44.209Z,0.91
2023-02-02T19:39:15.772Z,0.90
2023-02-02T19:41:48.099Z,0.85
2023-02-02T19:44:42.090Z,0.82
2023-02-02T19:47:27.131Z,0.78
2023-02-02T19:49:58.992Z,0.73
2023-02-02T19:52:38.882Z,0.72
2023-02-02T19:55:22.384Z,0.70
2023-02-02T19:57:58.165Z,0.67
2023-02-02T20:00:33.316Z,0.63
2023-02-02T20:03:06.307Z,0.64
2023-02-02T20:05:38.946Z,0.63
2023-02-02T20:08:19.586Z,0.62
2023-02-02T20:10:51.690Z,0.59
2023-02-02T20:13:24.194Z,0.59
2023-02-02T20:16:03.628Z,0.58
2023-02-02T20:18:43.839Z,0.57
2023-02-02T20:21:37.071Z,0.58
2023-02-02T20:24:17.298Z,0.60
2023-02-02T20:26:59.806Z,0.63
2023-02-02T20:29:40.682Z,0.65
2023-02-02T20:32:18.647Z,0.67
2023-02-02T20:34:51.042Z,0.69
2023-02-02T20:37:26.515Z,0.71
2023-02-02T20:40:00.190Z,0.74
2023-02-02T20:42:31.392Z,0.78
2023-02-02T20:45:00.425Z,0.79
2023-02-02T20:47:55.655Z,0.80
2023-02-02T20:50:47.124Z,0.87
2023-02-02T20:53:15.485Z,0.91
2023-02-02T20:55:46.314Z,0.94
2023-02-02T20:58:30.609Z,0.99
2023-02-02T21:01:01.298Z,1.00
2023-02-02T21:03:32.474Z,0.99
2023-02-02T21:06:07.393Z,0.96
2023-02-02T21:08:38.492Z,0.93
2023-02-02T21:11:07.683Z,0.89
2023-02-02T21:13:41.158Z,0.85
2023-02-02T21:16:31.801Z,0.84
2023-02-02T21:19:02.755Z,0.81
2023-02-02T21:21:33.573Z,0.75
2023-02-02T21:24:04.515Z,0.68
2023-02-02T21:26:35.395Z,0.64
2023-02-02T21:29:06.435Z,0.61
2023-02-02T21:31:36.847Z,0.59
2023-02-02T21:34:07.640Z,0.55
2023-02-02T21:36:42.969Z,0.54
2023-02-02T21:39:24.412Z,0.49
2023-02-02T21:42:24.291Z,0.47
2023-02-02T21:45:35.397Z,0.45
2023-02-02T21:48:37.529Z,0.42
2023-02-02T21:51:22.862Z,0.43
2023-02-02T21:53:53.646Z,0.41
2023-02-02T21:56:28.763Z,0.38
2023-02-02T21:59:00.831Z,0.34
2023-02-02T22:01:40.004Z,0.32
2023-02-02T22:04:25.184Z,0.30
2023-02-02T22:07:00.427Z,0.22
2023-02-02T22:09:39.651Z,0.16
2023-02-02T22:12:22.425Z,0.12
2023-02-02T22:14:57.459Z,0.08
2023-02-02T22:17:34.617Z,0.06
2023-02-02T22:20:46.968Z,0.07
2023-02-02T22:23:17.189Z,0.03
2023-02-02T22:26:28.865Z,0.01
2023-02-02T22:28:59.636Z,-0.06
2023-02-02T22:31:33.322Z,-0.13
2023-02-02T22:34:04.105Z,-0.14
2023-02-02T22:36:34.792Z,-0.15
2023-02-02T22:39:05.780Z,-0.16
2023-02-02T22:41:36.415Z,-0.15
2023-02-02T22:44:07.718Z,-0.14
2023-02-02T22:47:15.144Z,-0.15
2023-02-02T22:49:46.373Z,-0.13
2023-02-02T22:52:17.222Z,-0.09
2023-02-02T22:54:47.920Z,-0.07
2023-02-02T22:57:18.796Z,-0.05
2023-02-02T22:59:49.431Z,-0.02
2023-02-02T23:02:20.119Z,0.02
2023-02-02T23:04:50.900Z,0.07
2023-02-02T23:07:36.184Z,0.12
2023-02-02T23:10:18.262Z,0.16
2023-02-02T23:12:50.473Z,0.21
2023-02-02T23:15:21.357Z,0.23
2023-02-02T23:17:52.197Z,0.28
2023-02-02T23:20:52.290Z,0.30
2023-02-02T23:23:20.380Z,0.35
2023-02-02T23:26:24.545Z,0.38
2023-02-02T23:28:45.806Z,0.40
2023-02-02T23:31:16.885Z,0.40
2023-02-02T23:33:46.025Z,0.40
2023-02-02T23:36:16.746Z,0.40
2023-02-02T23:38:49.602Z,0.42
2023-02-02T23:41:23.107Z,0.44
2023-02-02T23:43:54.079Z,0.47
2023-02-02T23:46:24.996Z,0.51
2023-02-02T23:48:55.860Z,0.52
2023-02-02T23:51:26.727Z,0.54
2023-02-02T23:53:57.687Z,0.57
2023-02-02T23:56:28.888Z,0.59
2023-02-02T23:58:57.899Z,0.62
